Latest Weather Observations for Wynyard

IDT60801

Issued at 10:01 am EDT Saturday 31 January 2015 (issued every 30 minutes, with the page automatically refreshed every 10 minutes)

About weather observations | Map of weather stations | Latest weather observations for TAS | Other Formats
Station Details ID: 091107 Name: WYNYARD AIRPORT Lat: -41.00 Lon: 145.73 Height: 12.0 m
Data from the previous 72 hours. | See also: Recent months at Wynyard
Date/Time
EDT
Temp
°C
App
Temp
°C
Dew
Point
Rel
Hum
%
Delta-T
°C
Wind Press
QNH
hPa
Press
MSL
hPa
Rain
since 9 am
mm
Dir
 
Spd
km/h
Gust
km/h
Spd
kts
Gust
kts
31/10:00am 19.6 16.5 10.3 55 5.0 S 17 28 9 15 1010.0 1010.0 0.0
31/09:00am 16.7 14.5 9.4 62 3.8 S 11 19 6 10 1010.4 1010.4 0.0
31/08:30am 15.7 13.8 9.1 65 3.4 SW 9 17 5 9 1010.3 1010.3 0.0
31/08:00am 14.0 11.3 8.8 71 2.6 WNW 13 17 7 9 1010.3 1010.3 0.0
31/07:30am 13.0 10.7 9.1 77 2.0 WNW 11 13 6 7 1010.1 1010.1 0.0
31/07:00am 12.1 10.0 8.2 77 1.9 NW 9 13 5 7 1010.1 1010.1 0.0
31/06:30am 12.4 9.8 7.7 73 2.3 WSW 11 17 6 9 1010.0 1010.0 0.0
31/05:30am 11.7 9.3 7.2 74 2.2 WSW 9 11 5 6 1009.7 1009.7 0.0
31/05:00am 12.6 10.4 7.7 72 2.4 SW 9 13 5 7 1009.8 1009.8 0.0
31/04:30am 12.2 9.6 7.7 74 2.2 W 11 13 6 7 1010.0 1010.0 0.0
31/04:00am 12.2 9.9 7.3 72 2.4 W 9 13 5 7 1010.2 1010.2 0.0
31/03:30am 12.0 9.2 7.1 72 2.4 W 11 15 6 8 1010.3 1010.3 0.0
31/03:00am 12.7 9.2 7.2 69 2.7 SSW 15 20 8 11 1010.5 1010.5 0.0
31/02:30am 11.7 9.7 7.0 73 2.2 SW 7 13 4 7 1010.6 1010.6 0.0
31/02:00am 10.8 8.5 7.3 79 1.7 WSW 9 13 5 7 1011.1 1011.1 0.0
31/01:30am 10.3 8.2 8.4 88 0.9 SW 9 11 5 6 1011.4 1011.4 0.0
31/01:00am 9.8 8.4 9.0 95 0.4 SW 6 9 3 5 1011.7 1011.7 0.0
31/12:30am 9.9 8.5 8.8 93 0.5 W 6 7 3 4 1011.8 1011.8 0.0
 
Date/Time
EDT
Temp
°C
App
Temp
°C
Dew
Point
Rel
Hum
%
Delta-T
°C
Wind Press
QNH
hPa
Press
MSL
hPa
Rain
since 9 am
mm
Dir
 
Spd
km/h
Gust
km/h
Spd
kts
Gust
kts
30/11:30pm 11.4 10.2 10.3 93 0.6 SW 7 11 4 6 1012.0 1012.0 0.0
30/11:00pm 12.7 11.5 10.2 85 1.3 SW 7 9 4 5 1012.0 1012.0 0.0
30/10:30pm 13.0 12.1 10.5 85 1.3 SSW 6 11 3 6 1012.1 1012.1 0.0
30/10:00pm 14.6 13.7 11.2 80 1.8 SSW 7 9 4 5 1012.0 1012.0 0.0
30/09:30pm 14.8 13.6 11.6 81 1.7 S 9 9 5 5 1011.8 1011.8 0.0
30/09:00pm 15.5 15.0 11.9 79 2.0 SE 6 7 3 4 1011.7 1011.7 0.0
30/08:30pm 17.2 17.2 12.3 73 2.7 NNE 4 7 2 4 1011.6 1011.6 0.0
30/08:00pm 17.7 16.4 12.4 71 2.9 NE 11 15 6 8 1011.5 1011.5 0.0
30/07:30pm 18.9 17.3 10.2 57 4.7 NW 9 13 5 7 1011.4 1011.4 0.0
30/07:00pm 19.1 16.7 10.1 56 4.8 WNW 13 19 7 10 1011.3 1011.3 0.0
30/06:30pm 18.7 15.5 10.0 57 4.6 NW 17 22 9 12 1011.3 1011.3 0.0
30/05:30pm 17.9 14.7 11.2 65 3.6 NW 19 24 10 13 1012.1 1012.1 0.0
30/05:00pm 18.1 14.5 9.7 58 4.4 NW 19 26 10 14 1012.5 1012.5 0.0
30/04:30pm 18.5 13.9 9.8 57 4.6 NNW 24 33 13 18 1012.7 1012.7 0.0
30/04:00pm 19.2 14.6 9.7 54 5.0 NNW 24 32 13 17 1013.0 1013.0 0.0
30/03:30pm 20.1 16.2 9.4 50 5.7 NNW 20 30 11 16 1013.3 1013.3 0.0
30/03:00pm 21.7 17.6 8.6 43 6.9 N 20 30 11 16 1013.7 1013.7 0.0
30/02:30pm 21.7 17.9 8.9 44 6.8 NNW 19 32 10 17 1013.7 1013.7 0.0
30/02:00pm 22.7 18.9 7.7 38 7.8 SSW 17 28 9 15 1014.0 1014.0 0.0
30/01:30pm 21.9 19.8 8.1 41 7.2 ENE 9 17 5 9 1014.4 1014.4 0.0
30/01:00pm 20.2 17.8 6.9 42 6.7 WSW 9 19 5 10 1014.9 1014.9 0.0
30/12:30pm 20.0 16.7 6.4 41 6.8 WSW 13 19 7 10 1015.5 1015.5 0.0
30/12:00pm 18.5 15.8 7.3 48 5.6 SW 11 19 6 10 1015.9 1015.9 0.0
30/11:30am 17.9 14.7 7.0 49 5.4 SSW 13 17 7 9 1016.3 1016.3 0.0
30/11:00am 18.1 15.4 5.7 44 6.0 SE 9 17 5 9 1016.4 1016.4 0.0
30/10:30am 18.1 14.3 5.7 44 6.0 SSW 15 24 8 13 1016.5 1016.5 0.0
30/10:00am 16.8 12.2 5.7 48 5.4 SW 19 22 10 12 1016.7 1016.7 0.0
30/09:30am 17.4 13.5 5.4 45 5.8 SSW 15 20 8 11 1017.0 1016.9 0.0
30/09:00am 15.4 11.5 5.3 51 4.8 S 15 20 8 11 1017.1 1017.0 0.0
30/08:30am 15.9 13.0 6.6 54 4.5 SSW 11 19 6 10 1017.3 1017.2 0.0
30/08:00am 13.0 10.1 6.6 65 3.1 W 11 13 6 7 1017.5 1017.4 0.0
30/07:30am 8.6 6.2 7.1 90 0.7 SSW 9 11 5 6 1017.5 1017.4 0.0
30/07:00am 8.9 5.7 6.7 86 1.0 WNW 13 15 7 8 1017.4 1017.3 0.0
30/06:30am 7.2 4.5 5.5 89 0.8 SW 9 11 5 6 1017.6 1017.5 0.0
30/06:00am 7.5 4.7 5.3 86 1.0 SW 9 13 5 7 1017.5 1017.4 0.0
30/05:30am 7.3 4.7 5.9 91 0.6 SW 9 11 5 6 1017.5 1017.4 0.0
30/05:00am 7.1 4.0 5.7 91 0.6 SSW 11 13 6 7 1017.5 1017.4 0.0
30/04:30am 8.8 6.7 6.8 87 0.9 S 7 9 4 5 1017.9 1017.8 0.0
30/04:00am 8.9 6.4 6.5 85 1.1 S 9 9 5 5 1018.0 1017.9 0.0
30/03:30am 8.3 5.7 6.1 86 1.0 SSW 9 9 5 5 1018.2 1018.1 0.0
30/03:00am 9.0 6.4 6.1 82 1.3 SW 9 11 5 6 1018.6 1018.5 0.0
30/02:30am 10.7 8.6 5.9 72 2.2 SSW 6 7 3 4 1018.9 1018.8 0.0
30/02:00am 10.9 9.0 4.8 66 2.8 SSW 4 7 2 4 1019.2 1019.1 0.0
30/01:30am 11.9 8.6 4.6 61 3.3 SE 11 15 6 8 1019.2 1019.1 0.0
30/01:00am 12.1 9.2 6.4 68 2.7 SSE 11 20 6 11 1019.5 1019.4 0.0
30/12:30am 13.0 10.3 7.2 68 2.8 SE 11 15 6 8 1019.5 1019.4 0.0
30/12:00am 14.3 11.0 8.0 66 3.1 E 15 20 8 11 1019.7 1019.6 0.0
 
Date/Time
EDT
Temp
°C
App
Temp
°C
Dew
Point
Rel
Hum
%
Delta-T
°C
Wind Press
QNH
hPa
Press
MSL
hPa
Rain
since 9 am
mm
Dir
 
Spd
km/h
Gust
km/h
Spd
kts
Gust
kts
29/11:30pm 14.8 10.6 8.1 64 3.4 E 20 30 11 16 1019.8 1019.7 0.0
29/11:00pm 14.3 12.5 9.3 72 2.5 E 9 22 5 12 1019.8 1019.7 0.0
29/10:30pm 12.8 11.1 9.8 82 1.5 SSE 9 15 5 8 1019.8 1019.7 0.0
29/10:00pm 12.9 11.5 9.7 81 1.6 S 7 9 4 5 1019.7 1019.6 0.0
29/09:30pm 14.4 13.1 10.0 75 2.3 SSW 7 9 4 5 1019.5 1019.4 0.0
29/09:00pm 14.2 11.9 9.0 71 2.6 WSW 11 13 6 7 1019.4 1019.3 0.0
29/08:30pm 16.7 14.2 9.6 63 3.7 NW 13 19 7 10 1019.2 1019.1 0.0
29/08:00pm 17.6 15.0 9.5 59 4.2 NW 13 19 7 10 1019.4 1019.3 0.0
29/07:30pm 17.4 14.0 9.3 59 4.2 NNW 17 22 9 12 1019.3 1019.2 0.0
29/07:00pm 17.5 14.5 9.4 59 4.2 NW 15 20 8 11 1019.3 1019.2 0.0
29/06:30pm 18.2 14.4 9.0 55 4.8 NW 19 24 10 13 1019.3 1019.2 0.0
29/06:00pm 18.2 13.9 7.9 51 5.2 NW 20 24 11 13 1019.5 1019.4 0.0
29/05:30pm 18.5 14.1 7.6 49 5.5 NW 20 26 11 14 1019.9 1019.8 0.0
29/05:00pm 18.7 14.8 6.9 46 5.9 N 17 22 9 12 1020.3 1020.2 0.0
29/04:30pm 19.2 15.3 7.3 46 6.0 NNE 17 24 9 13 1020.3 1020.2 0.0
29/04:00pm 20.4 16.5 7.1 42 6.8 NNE 17 22 9 12 1020.4 1020.3 0.0
29/03:30pm 20.0 16.3 9.3 50 5.7 N 19 24 10 13 1020.6 1020.5 0.0
29/03:00pm 20.1 16.4 9.4 50 5.7 NNE 19 28 10 15 1020.8 1020.7 0.0
29/02:30pm 19.8 15.9 8.5 48 5.9 NNE 19 24 10 13 1021.0 1020.9 0.0
29/02:00pm 20.1 16.4 8.1 46 6.2 NNE 17 24 9 13 1021.3 1021.2 0.0
29/01:30pm 19.4 15.7 8.1 48 5.8 NE 17 20 9 11 1021.7 1021.6 0.0
29/01:00pm 19.3 16.1 8.3 49 5.7 NNE 15 20 8 11 1022.0 1021.9 0.0
29/12:30pm 19.5 16.1 9.1 51 5.5 NE 17 20 9 11 1022.4 1022.3 0.0
29/12:00pm 18.3 14.2 7.7 50 5.4 NE 19 24 10 13 1022.5 1022.4 0.0
29/11:30am 17.8 14.4 7.5 51 5.2 NNE 15 19 8 10 1022.7 1022.6 0.0
29/11:00am 17.9 13.8 6.1 46 5.8 NE 17 22 9 12 1022.8 1022.7 0.0
29/10:30am 18.0 14.4 6.8 48 5.6 NE 15 24 8 13 1022.9 1022.8 0.0
29/10:00am 17.9 14.0 5.2 43 6.1 E 15 32 8 17 1022.8 1022.7 0.0
29/09:30am 17.4 14.0 5.7 46 5.7 SE 13 17 7 9 1023.0 1022.9 0.0
29/09:00am 15.8 12.5 4.5 47 5.3 SSE 11 17 6 9 1023.0 1022.9 0.0
29/08:30am 15.2 11.9 4.6 49 4.9 SE 11 17 6 9 1023.1 1023.0 0.0
29/08:00am 14.2 12.4 5.6 56 4.0 ESE 4 7 2 4 1022.9 1022.8 0.0
29/07:30am 10.9 8.2 5.4 69 2.5 NW 9 13 5 7 1022.8 1022.7 0.0
29/07:00am 9.9 6.8 5.5 74 2.0 SW 11 15 6 8 1022.5 1022.4 0.0
29/06:30am 11.0 7.2 4.0 62 3.1 S 13 20 7 11 1022.4 1022.3 0.0
29/06:00am 10.0 7.9 4.0 66 2.6 SSW 4 7 2 4 1022.4 1022.3 0.0
29/05:30am 10.6 7.6 4.1 64 2.9 S 9 15 5 8 1022.2 1022.1 0.0
29/05:00am 10.8 7.8 4.3 64 2.9 S 9 15 5 8 1022.3 1022.2 0.0
29/04:30am 11.0 6.5 4.2 63 3.0 S 17 22 9 12 1022.1 1022.0 0.0
29/04:00am 10.7 7.8 4.6 66 2.7 S 9 13 5 7 1022.2 1022.1 0.0
29/03:30am 10.2 7.0 5.0 70 2.3 S 11 17 6 9 1022.3 1022.2 0.0
29/03:00am 8.4 5.7 3.8 73 2.0 SW 7 9 4 5 1022.6 1022.5 0.0
29/02:30am 8.3 5.0 4.7 78 1.6 SSW 11 13 6 7 1022.7 1022.6 0.0
29/02:00am 10.1 7.1 4.3 67 2.6 SSE 9 13 5 7 1022.9 1022.8 0.0
29/01:30am 12.7 8.3 4.7 58 3.7 ESE 17 20 9 11 1022.8 1022.7 0.0
29/01:00am 13.1 8.7 5.0 58 3.7 ESE 17 22 9 12 1023.0 1022.9 0.0
29/12:30am 13.0 9.3 4.7 57 3.8 ESE 13 20 7 11 1023.1 1023.0 0.0
29/12:00am 14.6 9.7 5.1 53 4.4 E 20 32 11 17 1023.2 1023.1 0.0
 
Date/Time
EDT
Temp
°C
App
Temp
°C
Dew
Point
Rel
Hum
%
Delta-T
°C
Wind Press
QNH
hPa
Press
MSL
hPa
Rain
since 9 am
mm
Dir
 
Spd
km/h
Gust
km/h
Spd
kts
Gust
kts
28/11:30pm 15.0 10.4 5.8 54 4.4 E 19 32 10 17 1023.2 1023.1 0.0
28/11:00pm 15.8 9.9 5.7 51 4.8 E 26 43 14 23 1023.2 1023.1 0.0
28/10:30pm 13.9 12.6 10.1 78 2.0 SSE 7 9 4 5 1023.0 1022.9 0.0
28/10:00pm 13.2 11.6 10.2 82 1.5 S 9 15 5 8 1022.8 1022.7 0.0
28/09:30pm 13.0 12.1 9.4 79 1.8 SSE 4 9 2 5 1022.4 1022.3 0.0
28/09:00pm 15.3 15.3 9.7 69 2.9 CALM 0 6 0 3 1022.2 1022.1 0.0
28/08:30pm 16.9 15.6 9.3 61 4.0 N 6 7 3 4 1021.9 1021.8 0.0
28/08:00pm 17.2 15.4 9.4 60 4.1 NNW 9 13 5 7 1021.7 1021.6 0.0
28/07:30pm 17.3 14.7 9.2 59 4.2 NNW 13 17 7 9 1021.5 1021.4 0.0
28/07:00pm 17.9 15.3 9.3 57 4.5 NNW 13 17 7 9 1021.4 1021.3 0.0
28/06:30pm 18.0 15.0 9.4 57 4.5 NW 15 19 8 10 1021.3 1021.2 0.0
28/06:00pm 18.1 14.3 7.5 50 5.3 NNW 17 20 9 11 1021.0 1020.9 0.0
28/05:30pm 18.6 15.3 6.4 45 6.1 N 13 19 7 10 1020.8 1020.7 0.0
28/05:00pm 20.3 15.6 5.1 37 7.4 NNW 19 24 10 13 1020.9 1020.8 0.0
28/04:30pm 20.0 15.8 5.6 39 7.1 NNE 17 22 9 12 1021.0 1020.9 0.0
28/04:00pm 20.1 15.9 7.5 44 6.4 NNE 19 30 10 16 1021.2 1021.1 0.0
28/03:30pm 20.5 16.1 6.4 40 7.1 NNE 19 24 10 13 1021.4 1021.3 0.0
28/03:00pm 19.4 15.2 7.5 46 6.0 NNE 19 22 10 12 1021.6 1021.5 0.0
28/02:30pm 18.8 14.9 7.3 47 5.8 N 17 24 9 13 1021.6 1021.5 0.0
28/02:00pm 19.9 15.9 8.3 47 6.0 NNE 19 24 10 13 1021.8 1021.7 0.0
28/01:30pm 19.3 15.0 7.7 47 5.9 NE 20 24 11 13 1022.0 1021.9 0.0
28/01:00pm 19.2 15.0 7.6 47 5.9 NE 19 22 10 12 1022.2 1022.1 0.0
28/12:30pm 18.3 14.0 7.1 48 5.6 ENE 19 26 10 14 1022.2 1022.1 0.0
28/12:00pm 17.2 13.5 8.1 55 4.6 ENE 17 24 9 13 1022.2 1022.1 0.0
28/11:30am 16.6 12.9 8.1 57 4.3 NE 17 24 9 13 1022.3 1022.2 0.0
28/11:00am 16.4 12.9 8.9 61 3.8 NE 17 20 9 11 1022.5 1022.4 0.0
28/10:30am 16.4 13.2 9.8 65 3.5 NE 17 22 9 12 1022.5 1022.4 0.0

Other Formats:

Comma delimited format used in spreadsheet applications
http://www.bom.gov.au/fwo/IDT60801/IDT60801.95957.axf

JavaScript Object Notation format (JSON) in row-major order
http://www.bom.gov.au/fwo/IDT60801/IDT60801.95957.json